Time;durP1;ratioP1;P1;durP2;ratioP2;P2;SDS_P1;SDS_P2;PMS_P1;PMS_P2;Temp;Humidity;BMP_temperature;BMP_pressure;BME280_temperature;BME280_humidity;BME280_pressure;Samples;Min_cycle;Max_cycle;Signal;HPM_P1;HPM_P2
2022/01/22 00:01:50;;;;;;;13.07;4.40;;;-0.90;99.90;;;;;;10011410;29;20290;-78
2022/01/22 00:07:13;;;;;;;8.17;3.50;;;-0.90;99.90;;;;;;10031561;29;20209;-79
2022/01/22 00:18:05;;;;;;;7.10;2.50;;;-0.90;99.90;;;;;;9993563;29;20220;-79
2022/01/22 00:23:28;;;;;;;6.23;2.50;;;-0.90;99.90;;;;;;10028068;29;20285;-80
2022/01/22 00:28:50;;;;;;;13.30;3.83;;;-0.90;99.90;;;;;;10027770;29;20206;-78
2022/01/22 00:34:13;;;;;;;8.07;3.23;;;-0.90;99.90;;;;;;10030709;29;20297;-80
2022/01/22 00:39:37;;;;;;;8.00;3.30;;;-0.90;99.90;;;;;;10042458;29;20257;-79
2022/01/22 00:44:59;;;;;;;10.40;3.67;;;-1.00;99.90;;;;;;10030418;29;20205;-79
2022/01/22 00:50:23;;;;;;;9.03;3.10;;;-1.00;99.90;;;;;;10035507;29;20212;-79
2022/01/22 00:55:45;;;;;;;4.27;1.70;;;-1.00;99.90;;;;;;10052382;29;20201;-79
2022/01/22 01:01:09;;;;;;;8.77;2.93;;;-0.90;99.90;;;;;;10008215;29;20233;-78
2022/01/22 01:06:31;;;;;;;6.23;1.77;;;-0.80;99.90;;;;;;10013601;29;20205;-79
2022/01/22 01:11:58;;;;;;;7.43;2.60;;;-0.90;99.90;;;;;;10029087;29;20538;-79
2022/01/22 01:17:58;;;;;;;7.17;2.70;;;-0.90;99.90;;;;;;10041919;29;20510;-78
2022/01/22 01:34:43;;;;;;;7.33;1.83;;;-1.00;99.90;;;;;;10028500;29;20203;-80
2022/01/22 01:40:10;;;;;;;4.03;1.70;;;-1.10;99.90;;;;;;10011888;29;20248;-80
2022/01/22 01:45:34;;;;;;;4.63;1.57;;;-1.10;99.90;;;;;;10016264;29;20275;-79
2022/01/22 01:50:58;;;;;;;4.00;1.80;;;-1.10;99.90;;;;;;10027978;29;20231;-79
2022/01/22 02:02:11;;;;;;;4.40;1.87;;;-1.10;99.90;;;;;;9856247;30;20228;-76
2022/01/22 02:07:38;;;;;;;30.57;9.17;;;-1.10;99.90;;;;;;9839301;30;20409;-78
2022/01/22 02:24:31;;;;;;;23.77;7.97;;;-1.10;99.90;;;;;;9851271;30;20228;-77
2022/01/22 02:29:54;;;;;;;14.53;5.03;;;-1.10;99.90;;;;;;9826674;30;20615;-79
2022/01/22 02:35:52;;;;;;;16.73;6.67;;;-1.10;99.90;;;;;;9868433;29;20526;-77
2022/01/22 02:41:18;;;;;;;11.60;2.80;;;-1.10;99.90;;;;;;10005381;29;20244;-77
2022/01/22 02:46:42;;;;;;;8.37;2.53;;;-1.00;99.90;;;;;;9961627;29;20215;-78
2022/01/22 02:52:07;;;;;;;5.77;2.00;;;-0.90;99.90;;;;;;9976964;29;20233;-77
2022/01/22 02:57:34;;;;;;;8.17;2.00;;;-0.90;99.90;;;;;;9995437;29;20224;-78
2022/01/22 03:02:57;;;;;;;5.27;2.10;;;-0.80;99.90;;;;;;9985438;29;20237;-77
2022/01/22 03:08:28;;;;;;;3.37;1.60;;;-0.80;99.90;;;;;;10014901;29;20206;-77
2022/01/22 03:30:50;;;;;;;5.70;2.00;;;-0.80;99.90;;;;;;10045245;29;20281;-77
2022/01/22 03:36:14;;;;;;;4.83;2.20;;;-0.80;99.90;;;;;;10017405;29;20395;-77
2022/01/22 03:41:36;;;;;;;7.27;2.20;;;-0.80;99.90;;;;;;10028448;29;20238;-78
2022/01/22 03:46:58;;;;;;;3.93;1.40;;;-0.70;99.90;;;;;;10029479;29;20490;-78
2022/01/22 03:52:20;;;;;;;6.10;2.23;;;-0.60;99.90;;;;;;10016733;29;20242;-77
2022/01/22 03:57:44;;;;;;;2.30;1.30;;;-0.50;99.90;;;;;;9996283;29;20197;-78
2022/01/22 04:08:41;;;;;;;3.63;1.30;;;-0.50;99.90;;;;;;10028432;29;20214;-79
2022/01/22 04:14:07;;;;;;;6.57;1.90;;;-0.40;99.90;;;;;;10031437;29;20235;-78
2022/01/22 04:25:14;;;;;;;6.83;2.50;;;-0.40;99.90;;;;;;10015422;29;20210;-78
2022/01/22 04:30:36;;;;;;;6.33;2.23;;;-0.30;99.90;;;;;;10043176;29;20219;-79
2022/01/22 04:35:59;;;;;;;5.50;2.50;;;-0.30;99.90;;;;;;10028020;29;20216;-77
2022/01/22 04:41:22;;;;;;;8.93;2.20;;;-0.40;99.90;;;;;;10029549;29;20245;-79
2022/01/22 04:57:46;;;;;;;3.13;1.60;;;-0.30;99.90;;;;;;10021518;29;20555;-77
2022/01/22 05:03:10;;;;;;;3.73;1.43;;;-0.30;99.90;;;;;;10003809;29;20217;-77
2022/01/22 05:08:54;;;;;;;7.47;2.43;;;-0.20;99.90;;;;;;10032223;29;20396;-77
2022/01/22 05:14:25;;;;;;;6.07;2.77;;;-0.10;99.90;;;;;;10029225;29;20412;-80
2022/01/22 05:19:56;;;;;;;4.13;2.07;;;-0.10;99.90;;;;;;10029102;29;20211;-78
2022/01/22 05:31:36;;;;;;;4.83;2.20;;;-0.10;99.90;;;;;;10040665;29;20248;-77
2022/01/22 05:37:07;;;;;;;4.60;1.57;;;-0.10;99.90;;;;;;10056217;29;20223;-76
2022/01/22 05:42:29;;;;;;;16.70;7.37;;;-0.10;99.90;;;;;;9990526;29;20374;-78
2022/01/22 05:47:51;;;;;;;6.23;2.80;;;-0.10;99.90;;;;;;9991220;29;20207;-77
2022/01/22 05:53:47;;;;;;;5.43;3.20;;;-0.10;99.90;;;;;;9987943;29;20250;-78
2022/01/22 06:04:40;;;;;;;8.00;2.60;;;-0.10;99.90;;;;;;9937476;29;20535;-78
2022/01/22 06:10:16;;;;;;;9.93;2.10;;;-0.10;99.90;;;;;;9983349;29;20210;-78
2022/01/22 06:15:39;;;;;;;6.07;2.50;;;-0.10;99.90;;;;;;9990037;29;20556;-78
2022/01/22 06:21:20;;;;;;;6.50;2.90;;;-0.20;99.90;;;;;;10002802;29;20269;-78
2022/01/22 06:26:42;;;;;;;7.77;3.00;;;-0.20;99.90;;;;;;9977291;29;20205;-78
2022/01/22 06:32:11;;;;;;;8.90;4.27;;;-0.20;99.90;;;;;;10002560;29;20240;-80
2022/01/22 06:37:36;;;;;;;7.77;3.83;;;-0.30;99.90;;;;;;9991136;29;20617;-80
2022/01/22 06:43:41;;;;;;;23.30;9.17;;;-0.30;99.90;;;;;;10010406;29;20205;-80
2022/01/22 06:49:12;;;;;;;16.57;7.90;;;-0.20;99.90;;;;;;9981024;29;20226;-80
2022/01/22 06:55:00;;;;;;;28.87;16.50;;;-0.30;99.90;;;;;;10009039;29;20230;-79
2022/01/22 07:00:23;;;;;;;96.13;40.23;;;-0.30;99.90;;;;;;10008420;29;20296;-80
2022/01/22 07:05:56;;;;;;;74.27;29.83;;;-0.20;99.90;;;;;;10018270;29;20290;-80
2022/01/22 07:11:22;;;;;;;65.37;29.03;;;-0.10;99.90;;;;;;10017548;29;20278;-77
2022/01/22 07:16:45;;;;;;;221.33;91.17;;;-0.10;99.90;;;;;;10018085;29;20514;-78
2022/01/22 07:22:49;;;;;;;295.20;115.57;;;0.00;99.90;;;;;;9994649;29;20209;-80
2022/01/22 07:34:16;;;;;;;14.70;6.37;;;0.10;99.90;;;;;;10350892;24;20622;-80
2022/01/22 07:39:39;;;;;;;18.57;9.07;;;0.00;99.90;;;;;;10032267;29;20274;-77
2022/01/22 07:45:20;;;;;;;19.13;6.57;;;-0.10;99.90;;;;;;10013551;24;20414;-78
2022/01/22 07:50:49;;;;;;;19.90;8.70;;;-0.10;99.90;;;;;;10005978;29;20307;-78
2022/01/22 07:56:12;;;;;;;12.07;4.87;;;0.00;99.90;;;;;;10006731;29;20216;-78
2022/01/22 08:01:35;;;;;;;151.20;54.00;;;0.10;99.90;;;;;;9993593;29;20208;-78
2022/01/22 08:07:36;;;;;;;29.63;14.23;;;0.20;99.90;;;;;;9989670;29;20216;-80
2022/01/22 08:13:29;;;;;;;51.17;20.80;;;0.40;99.90;;;;;;10004939;29;20261;-78
2022/01/22 08:18:52;;;;;;;56.90;20.07;;;0.40;99.90;;;;;;9992876;29;20211;-77
2022/01/22 08:24:16;;;;;;;51.43;15.83;;;0.40;99.90;;;;;;9998394;29;20248;-78
2022/01/22 08:29:42;;;;;;;30.53;10.93;;;0.60;99.90;;;;;;9956843;29;20278;-78
2022/01/22 08:40:50;;;;;;;25.23;9.87;;;0.60;99.90;;;;;;9954811;29;20305;-78
2022/01/22 08:46:12;;;;;;;14.80;6.03;;;0.60;99.90;;;;;;9967134;29;20479;-79
2022/01/22 08:51:38;;;;;;;14.17;5.00;;;0.70;99.90;;;;;;9966517;29;20255;-78
2022/01/22 08:57:01;;;;;;;11.80;4.73;;;0.80;99.90;;;;;;9944240;29;20555;-78
2022/01/22 09:02:24;;;;;;;10.90;4.77;;;0.80;99.90;;;;;;9991189;29;20235;-78
2022/01/22 09:07:55;;;;;;;26.17;8.03;;;0.70;99.90;;;;;;9993318;29;20203;-78
2022/01/22 09:19:36;;;;;;;18.30;6.47;;;1.00;99.90;;;;;;9891071;30;20237;-78
2022/01/22 09:25:07;;;;;;;14.03;6.10;;;1.10;99.90;;;;;;9878820;30;20246;-79
2022/01/22 09:30:30;;;;;;;7.27;3.57;;;1.20;99.90;;;;;;9879417;30;20217;-77
2022/01/22 09:36:12;;;;;;;10.50;4.03;;;1.10;99.90;;;;;;9863950;30;20215;-80
2022/01/22 09:41:34;;;;;;;10.23;3.40;;;1.20;99.90;;;;;;10545009;24;20567;-78
2022/01/22 09:47:20;;;;;;;8.23;3.87;;;1.30;99.90;;;;;;9990308;29;20208;-77
2022/01/22 09:53:03;;;;;;;10.17;4.30;;;1.50;99.90;;;;;;10006574;24;20317;-79
2022/01/22 09:59:00;;;;;;;12.80;6.73;;;1.90;99.90;;;;;;9902007;30;20205;-78
2022/01/22 10:04:36;;;;;;;14.23;5.97;;;2.20;99.90;;;;;;9897368;30;20228;-78
2022/01/22 10:10:40;;;;;;;8.93;4.43;;;2.20;99.90;;;;;;9910062;30;20614;-79
2022/01/22 10:16:46;;;;;;;13.83;6.57;;;2.30;99.90;;;;;;9887063;30;20535;-78
2022/01/22 10:22:08;;;;;;;13.47;4.27;;;2.40;99.90;;;;;;9873884;30;20226;-78
2022/01/22 10:27:33;;;;;;;9.07;4.53;;;2.50;99.90;;;;;;9860066;30;20217;-79
2022/01/22 10:33:06;;;;;;;9.43;4.20;;;2.50;99.90;;;;;;9850727;30;20270;-79
2022/01/22 10:38:52;;;;;;;12.00;4.80;;;2.60;99.90;;;;;;9858444;30;20227;-79
2022/01/22 10:44:20;;;;;;;21.17;6.90;;;2.40;99.90;;;;;;9886827;29;20228;-80
2022/01/22 10:49:42;;;;;;;7.43;3.33;;;2.40;99.90;;;;;;9994342;29;20219;-78
2022/01/22 10:55:05;;;;;;;42.10;11.57;;;2.50;99.90;;;;;;10025852;29;20250;-78
2022/01/22 11:00:27;;;;;;;21.57;7.97;;;2.60;99.90;;;;;;9995571;29;20195;-78
2022/01/22 11:05:50;;;;;;;26.30;9.00;;;2.60;99.90;;;;;;10008347;29;20239;-78
2022/01/22 11:11:12;;;;;;;12.40;4.63;;;2.70;99.90;;;;;;10008837;29;20447;-78
2022/01/22 11:16:41;;;;;;;14.20;4.20;;;2.80;99.90;;;;;;9979965;29;20237;-79
2022/01/22 11:22:11;;;;;;;15.73;6.33;;;2.70;99.90;;;;;;10028438;29;20203;-78
2022/01/22 11:27:36;;;;;;;13.17;5.33;;;3.40;99.90;;;;;;9993954;29;20512;-78
2022/01/22 11:33:10;;;;;;;14.33;6.00;;;4.20;99.90;;;;;;9991797;29;20253;-78
2022/01/22 11:38:37;;;;;;;12.43;4.90;;;4.50;99.90;;;;;;10007079;29;20412;-78
2022/01/22 11:44:15;;;;;;;7.83;3.27;;;4.40;99.90;;;;;;10008395;29;20230;-78
2022/01/22 11:49:38;;;;;;;7.60;3.20;;;4.50;99.90;;;;;;10032356;29;20288;-77
2022/01/22 11:55:07;;;;;;;10.43;4.10;;;4.50;99.90;;;;;;10044728;29;20244;-79
2022/01/22 12:00:29;;;;;;;6.57;2.97;;;4.30;99.90;;;;;;10028843;29;20231;-78
2022/01/22 12:05:54;;;;;;;11.10;4.97;;;3.70;99.90;;;;;;10044371;29;20201;-78
2022/01/22 12:18:00;;;;;;;27.93;15.07;;;2.90;99.90;;;;;;10006916;29;20222;-77
2022/01/22 12:23:31;;;;;;;74.43;31.13;;;2.70;99.90;;;;;;9864545;29;20234;-78
2022/01/22 12:28:53;;;;;;;46.87;19.50;;;2.70;99.90;;;;;;9866366;30;20259;-80
2022/01/22 12:34:15;;;;;;;110.47;45.73;;;2.60;99.90;;;;;;9878768;30;20237;-80
2022/01/22 12:39:44;;;;;;;78.63;29.70;;;2.50;99.90;;;;;;9877324;30;20221;-80
2022/01/22 12:45:07;;;;;;;30.83;14.23;;;2.40;99.90;;;;;;9878192;30;20478;-79
2022/01/22 12:50:32;;;;;;;478.90;135.40;;;2.30;99.90;;;;;;9877958;30;20271;-80
2022/01/22 13:01:26;;;;;;;31.63;14.70;;;2.10;99.90;;;;;;10026683;29;20493;-79
2022/01/22 13:06:51;;;;;;;9.93;4.70;;;2.10;99.90;;;;;;10014021;29;20206;-79
2022/01/22 13:12:24;;;;;;;13.97;6.13;;;2.10;99.90;;;;;;10026810;29;20245;-81
2022/01/22 13:17:52;;;;;;;15.07;7.00;;;2.00;99.90;;;;;;10001179;29;20380;-79
2022/01/22 13:23:19;;;;;;;28.00;10.60;;;1.90;99.90;;;;;;10016952;29;20216;-79
2022/01/22 13:28:42;;;;;;;47.40;15.00;;;1.80;99.90;;;;;;9991780;29;20215;-78
2022/01/22 13:34:16;;;;;;;32.60;12.87;;;1.80;99.90;;;;;;9991054;29;20227;-80
2022/01/22 13:40:12;;;;;;;29.80;12.97;;;1.80;99.90;;;;;;9990867;29;20253;-80
2022/01/22 13:47:39;;;;;;;31.93;16.37;;;1.80;99.90;;;;;;10004330;29;20208;-79
2022/01/22 13:51:04;;;;;;;25.40;11.57;;;1.80;99.90;;;;;;9974975;29;20239;-79
2022/01/22 13:56:53;;;;;;;30.47;15.03;;;1.70;99.90;;;;;;9990743;29;20240;-80
2022/01/22 14:07:49;;;;;;;15.70;5.13;;;1.70;99.90;;;;;;10004678;29;20207;-79
2022/01/22 14:13:11;;;;;;;8.93;4.10;;;1.60;99.90;;;;;;10028455;29;20399;-79
2022/01/22 14:18:42;;;;;;;10.77;4.20;;;1.60;99.90;;;;;;10025461;29;20259;-79
2022/01/22 14:24:09;;;;;;;11.63;4.27;;;1.50;99.90;;;;;;10041471;29;20207;-79
2022/01/22 14:29:43;;;;;;;11.30;5.63;;;1.40;99.90;;;;;;10025243;29;20396;-80
2022/01/22 14:35:20;;;;;;;10.87;4.20;;;1.40;99.90;;;;;;10041088;29;20246;-81
2022/01/22 14:46:23;;;;;;;14.87;4.13;;;1.20;99.90;;;;;;10024348;29;20261;-80
2022/01/22 14:51:45;;;;;;;28.03;10.27;;;1.20;99.90;;;;;;10026811;29;20226;-79
2022/01/22 14:57:09;;;;;;;26.13;11.43;;;1.20;99.90;;;;;;10005606;29;20243;-79
2022/01/22 15:02:32;;;;;;;17.07;7.13;;;1.20;99.90;;;;;;10028850;29;20226;-79
2022/01/22 15:07:55;;;;;;;10.07;4.40;;;1.20;99.90;;;;;;10047472;29;20207;-81
2022/01/22 15:13:17;;;;;;;14.00;6.10;;;1.10;99.90;;;;;;10018166;29;20257;-79
2022/01/22 15:19:14;;;;;;;12.47;5.60;;;1.10;99.90;;;;;;10018023;29;20211;-80
2022/01/22 15:24:28;;;;;;;10.33;5.07;;;1.00;99.90;;;;;;10007820;29;20283;-84
2022/01/22 15:35:19;;;;;;;15.63;6.07;;;1.00;99.90;;;;;;10007514;29;20234;-80
2022/01/22 15:40:41;;;;;;;18.83;8.27;;;0.90;99.90;;;;;;10007693;29;20195;-79
2022/01/22 15:46:03;;;;;;;16.47;7.07;;;0.90;99.90;;;;;;9994562;29;20257;-79
2022/01/22 15:51:27;;;;;;;15.93;6.23;;;0.80;99.90;;;;;;9994554;29;20295;-80
2022/01/22 15:56:52;;;;;;;17.60;8.63;;;0.80;99.90;;;;;;10005876;29;20210;-80
2022/01/22 16:02:14;;;;;;;14.93;6.73;;;0.80;99.90;;;;;;10007255;29;20278;-80
2022/01/22 16:07:36;;;;;;;14.93;7.37;;;0.80;99.90;;;;;;10009149;29;20278;-80
2022/01/22 16:13:18;;;;;;;21.10;6.70;;;0.70;99.90;;;;;;10006426;29;20391;-80
2022/01/22 16:18:41;;;;;;;14.43;6.03;;;0.70;99.90;;;;;;10008141;29;20208;-79
2022/01/22 16:24:04;;;;;;;15.57;7.10;;;0.60;99.90;;;;;;10015174;29;20215;-79
2022/01/22 16:29:48;;;;;;;21.53;9.13;;;0.50;99.90;;;;;;9980463;29;20244;-79
2022/01/22 16:35:13;;;;;;;14.00;6.50;;;0.50;99.90;;;;;;10042239;24;20246;-80
2022/01/22 16:40:35;;;;;;;14.30;5.60;;;0.40;99.90;;;;;;10031643;29;20209;-79
2022/01/22 16:57:33;;;;;;;18.40;7.17;;;0.40;99.90;;;;;;10039732;29;20256;-79
2022/01/22 17:02:55;;;;;;;13.47;5.33;;;0.40;99.90;;;;;;10033125;29;20212;-78
2022/01/22 17:19:24;;;;;;;23.23;9.60;;;0.40;99.90;;;;;;10014865;29;20202;-78
2022/01/22 17:37:24;;;;;;;19.10;8.07;;;0.50;99.90;;;;;;10092049;24;20471;-79
2022/01/22 17:42:46;;;;;;;20.10;8.00;;;0.40;99.90;;;;;;10185046;24;20245;-79
2022/01/22 17:48:09;;;;;;;48.77;16.73;;;0.30;99.90;;;;;;10040920;29;20222;-79
2022/01/22 17:53:38;;;;;;;50.83;19.83;;;0.40;99.90;;;;;;10075332;24;20317;-80
2022/01/22 17:59:03;;;;;;;39.20;16.90;;;0.40;99.90;;;;;;10000594;29;20252;-80
2022/01/22 18:04:28;;;;;;;40.67;14.77;;;0.40;99.90;;;;;;10993980;24;20243;-80
2022/01/22 18:09:52;;;;;;;40.40;16.23;;;0.30;99.90;;;;;;10300560;24;20242;-80
2022/01/22 18:21:17;;;;;;;22.93;9.30;;;0.30;99.90;;;;;;10224516;23;20239;-79
2022/01/22 18:26:40;;;;;;;16.97;7.27;;;0.30;99.90;;;;;;10027595;29;20231;-80
2022/01/22 18:38:15;;;;;;;17.10;8.13;;;0.10;99.90;;;;;;10271613;24;20505;-79
2022/01/22 18:43:39;;;;;;;17.20;6.77;;;0.10;99.90;;;;;;10032051;29;20206;-79
2022/01/22 18:49:02;;;;;;;20.50;7.97;;;0.10;99.90;;;;;;10074062;24;20245;-79
2022/01/22 18:54:24;;;;;;;16.00;7.67;;;0.10;99.90;;;;;;10004004;29;20232;-79
2022/01/22 18:59:47;;;;;;;13.67;7.33;;;0.10;99.90;;;;;;10032631;29;20514;-78
2022/01/22 19:05:10;;;;;;;17.60;7.30;;;0.10;99.90;;;;;;10018806;29;20571;-79
2022/01/22 19:10:34;;;;;;;16.90;7.67;;;0.00;99.90;;;;;;10021039;29;20203;-78
2022/01/22 19:15:56;;;;;;;18.83;9.93;;;0.00;99.90;;;;;;10018123;29;20577;-79
2022/01/22 19:21:25;;;;;;;19.13;8.90;;;0.10;99.90;;;;;;10046483;29;20213;-79
2022/01/22 19:32:27;;;;;;;15.57;8.13;;;0.20;99.90;;;;;;9995544;29;20556;-78
2022/01/22 19:37:49;;;;;;;12.93;7.17;;;0.10;99.90;;;;;;9979700;29;20208;-78
2022/01/22 19:43:12;;;;;;;20.50;7.90;;;0.10;99.90;;;;;;10007263;29;20192;-77
2022/01/22 19:48:33;;;;;;;14.77;8.03;;;0.10;99.90;;;;;;9970368;29;20265;-79
2022/01/22 19:53:55;;;;;;;21.17;9.63;;;0.10;99.90;;;;;;9991328;29;20433;-79
2022/01/22 19:59:17;;;;;;;26.03;10.30;;;0.20;99.90;;;;;;9985973;29;20211;-79
2022/01/22 20:10:26;;;;;;;28.87;9.97;;;0.10;99.90;;;;;;9917084;30;20398;-78
2022/01/22 20:15:49;;;;;;;38.80;14.90;;;0.00;99.90;;;;;;9931512;24;20240;-78
2022/01/22 20:21:17;;;;;;;27.03;10.53;;;0.00;99.90;;;;;;10066409;29;20198;-79
2022/01/22 20:26:59;;;;;;;36.23;12.80;;;0.00;99.90;;;;;;10063815;29;20210;-80
2022/01/22 20:32:21;;;;;;;26.67;8.83;;;0.00;99.90;;;;;;10030941;29;20208;-80
2022/01/22 20:37:45;;;;;;;27.20;9.00;;;0.00;99.90;;;;;;10015683;29;20227;-80
2022/01/22 20:43:07;;;;;;;30.00;10.57;;;-0.10;99.90;;;;;;10028245;29;20222;-80
2022/01/22 20:48:31;;;;;;;28.27;8.20;;;-0.10;99.90;;;;;;10030585;29;20427;-81
2022/01/22 20:53:53;;;;;;;25.83;8.73;;;0.00;99.90;;;;;;10058010;29;20300;-79
2022/01/22 20:59:16;;;;;;;25.70;7.43;;;0.00;99.90;;;;;;10087159;29;20252;-79
2022/01/22 21:04:37;;;;;;;24.13;7.23;;;-0.20;99.90;;;;;;10119355;29;20203;-80
2022/01/22 21:10:01;;;;;;;31.00;7.60;;;-0.10;99.90;;;;;;10058915;29;20441;-80
2022/01/22 21:15:23;;;;;;;28.83;9.27;;;-0.10;99.90;;;;;;10064723;29;20236;-79
2022/01/22 21:20:46;;;;;;;34.40;10.97;;;-0.10;99.90;;;;;;10037033;29;20220;-79
2022/01/22 21:26:09;;;;;;;19.40;7.17;;;-0.10;99.90;;;;;;10080849;29;20208;-79
2022/01/22 21:31:31;;;;;;;12.93;5.77;;;-0.10;99.90;;;;;;10067100;29;20200;-79
2022/01/22 21:37:10;;;;;;;16.57;5.80;;;0.00;99.90;;;;;;10063886;29;20234;-80
2022/01/22 21:42:55;;;;;;;19.40;7.63;;;0.00;99.90;;;;;;10041218;29;20209;-79
2022/01/22 21:48:18;;;;;;;29.60;9.33;;;0.00;99.90;;;;;;10038502;29;20232;-79
2022/01/22 21:53:40;;;;;;;28.40;9.87;;;0.00;99.90;;;;;;10087128;29;20247;-79
2022/01/22 21:59:02;;;;;;;18.97;7.77;;;0.10;99.90;;;;;;10086720;29;20201;-79
2022/01/22 22:04:25;;;;;;;34.00;11.37;;;0.10;99.90;;;;;;10118240;29;20200;-80
2022/01/22 22:09:46;;;;;;;32.53;10.40;;;0.10;99.90;;;;;;10079567;29;20200;-78
2022/01/22 22:15:09;;;;;;;39.37;12.57;;;0.10;99.90;;;;;;10069857;24;20262;-80
2022/01/22 22:20:34;;;;;;;40.97;12.93;;;0.10;99.90;;;;;;10078296;29;20217;-81
2022/01/22 22:25:56;;;;;;;28.97;9.60;;;0.10;99.90;;;;;;10075908;29;20216;-80
2022/01/22 22:31:18;;;;;;;27.93;10.30;;;0.10;99.90;;;;;;10063087;29;20500;-80
2022/01/22 22:36:41;;;;;;;24.30;9.80;;;0.10;99.90;;;;;;10062972;29;20320;-79
2022/01/22 22:42:04;;;;;;;37.17;12.67;;;0.10;99.90;;;;;;10041224;29;20224;-80
2022/01/22 22:47:26;;;;;;;29.83;11.67;;;0.10;99.90;;;;;;10052928;29;20210;-80
2022/01/22 22:52:49;;;;;;;35.77;12.53;;;0.10;99.90;;;;;;10065035;29;20279;-80
2022/01/22 22:58:11;;;;;;;40.00;13.17;;;0.10;99.90;;;;;;10073951;29;20283;-80
2022/01/22 23:03:36;;;;;;;59.53;16.97;;;0.10;99.90;;;;;;10117016;29;20210;-78
2022/01/22 23:08:59;;;;;;;32.70;10.60;;;0.20;99.90;;;;;;10076905;29;20205;-79
2022/01/22 23:14:21;;;;;;;36.73;11.00;;;0.10;99.90;;;;;;10454319;23;20302;-79
2022/01/22 23:25:45;;;;;;;37.23;11.87;;;0.20;99.90;;;;;;9931856;30;20219;-78
2022/01/22 23:31:20;;;;;;;48.57;18.23;;;0.20;99.90;;;;;;9917718;30;20204;-78
2022/01/22 23:59:13;;;;;;;22.83;9.57;;;0.20;99.90;;;;;;9930597;29;20257;-80
